East Point, Georgia
Current Conditions -  °F | °C
As of 5:52 PM on Tuesday 25 Nov 2014 (Local Time) from KATL Reporting Station
Broken Clouds Broken Clouds  
Wind Chill: 56°   Ceiling: 14000
Heat Index: 56°   Visibility: 10mi
Dew Point: 29°   Wind: 7mph
Humidity: 36%   Direction: 310°NW
Pressure: 30.02"   Gusts: NA
Location:  33.68°N, 84.44°W
Report Text: KATL 252252Z 31006KT 10SM BKN140 BKN200 BKN250 13/M02 A3002 RMK AO2 SLP165 T01331017
Loading
Personal Weather Stations






























Interactive Weather Map New forecast layout! Learn more

10-Day Weather Forecast

Advertisements
Track Severe Weather on mobile